Time;durP1;ratioP1;P1;durP2;ratioP2;P2;SDS_P1;SDS_P2;PMS_P1;PMS_P2;Temp;Humidity;BMP_temperature;BMP_pressure;BME280_temperature;BME280_humidity;BME280_pressure;Samples;Min_cycle;Max_cycle;Signal;HPM_P1;HPM_P2
2023/05/04 00:02:35;;;;;;;2.40;1.00;;;;;;;5.44;100.00;101690.84;5118496;28;20074;-91
2023/05/04 00:05:06;;;;;;;2.38;1.00;;;;;;;5.50;97.32;101685.69;5120756;28;20035;-91
2023/05/04 00:07:38;;;;;;;2.45;1.05;;;;;;;5.50;97.45;101681.38;5141214;28;20030;-92
2023/05/04 00:10:12;;;;;;;2.70;1.10;;;;;;;5.44;98.08;101683.06;5120475;28;20043;-91
2023/05/04 00:12:45;;;;;;;3.58;1.20;;;;;;;5.35;99.01;101674.41;5134202;28;20119;-91
2023/05/04 00:15:18;;;;;;;3.20;1.30;;;;;;;5.36;99.63;101666.63;5121119;28;20055;-92
2023/05/04 00:17:59;;;;;;;;;;;;;;;;;;;;;
2023/05/04 00:20:34;;;;;;;2.10;1.00;;;;;;;5.37;98.37;101667.50;5117315;28;20050;-92
2023/05/04 00:23:05;;;;;;;1.85;1.10;;;;;;;5.38;98.21;101664.94;5121207;28;20035;-92
2023/05/04 00:25:40;;;;;;;3.35;1.35;;;;;;;5.27;98.55;101661.44;5126245;28;20031;-92
2023/05/04 00:28:15;;;;;;;4.88;1.23;;;;;;;5.31;97.99;101657.13;5115549;28;20093;-91
2023/05/04 00:31:04;;;;;;;;;;;;;;;;;;;;;
2023/05/04 00:33:37;;;;;;;2.90;1.20;;;;;;;5.27;96.89;101660.53;5121524;28;20458;-92
2023/05/04 00:36:12;;;;;;;3.75;1.00;;;;;;;5.40;95.57;101655.44;5116804;29;21479;-91
2023/05/04 00:38:52;;;;;;;1.63;1.00;;;;;;;5.19;94.81;101659.66;5120246;28;20125;-92
2023/05/04 00:41:33;;;;;;;5.57;1.33;;;;;;;5.11;98.13;101657.06;5134834;28;20050;-93
2023/05/04 00:44:08;;;;;;;6.80;1.10;;;;;;;5.07;97.61;101657.03;5124350;28;20058;-92
2023/05/04 00:46:41;;;;;;;3.28;1.23;;;;;;;4.95;99.65;101651.81;5120439;28;20031;-91
2023/05/04 00:49:52;;;;;;;;;;;;;;;;;;;;;
2023/05/04 00:52:26;;;;;;;4.55;1.10;;;;;;;4.92;99.77;101655.25;5123256;28;20058;-92
2023/05/04 00:55:06;;;;;;;4.25;1.15;;;;;;;4.89;100.00;101650.06;5121053;28;20035;-92
2023/05/04 00:57:55;;;;;;;3.58;1.00;;;;;;;4.94;100.00;101657.84;5119427;28;20027;-92
2023/05/04 01:00:43;;;;;;;6.97;1.17;;;;;;;4.91;100.00;101655.22;5120910;28;20440;-92
2023/05/04 01:03:20;;;;;;;4.75;1.35;;;;;;;4.98;99.91;101642.31;5137272;28;20034;-93
2023/05/04 01:06:30;;;;;;;2.22;1.10;;;;;;;4.99;99.82;101640.59;5120334;28;20090;-93
2023/05/04 01:09:56;;;;;;;4.22;1.50;;;;;;;5.09;99.68;101643.22;5119529;28;20537;-92
2023/05/04 01:12:33;;;;;;;3.03;1.20;;;;;;;5.07;98.91;101632.00;5123910;28;20034;-91
2023/05/04 01:15:08;;;;;;;1.83;1.17;;;;;;;4.89;99.53;101631.06;5122634;28;20027;-91
2023/05/04 01:20:39;;;;;;;2.63;1.33;;;;;;;4.82;99.89;101644.84;5125496;28;20035;-91
2023/05/04 01:23:21;;;;;;;5.20;1.80;;;;;;;4.85;100.00;101650.91;5123959;28;20031;-92
2023/05/04 01:26:13;;;;;;;2.67;1.25;;;;;;;4.80;100.00;101647.41;5140156;28;20030;-92
2023/05/04 01:29:00;;;;;;;;;;;;;;;;;;;;;
2023/05/04 01:31:35;;;;;;;7.15;2.30;;;;;;;4.69;100.00;101650.81;5122766;28;20034;-91
2023/05/04 01:34:19;;;;;;;3.78;1.48;;;;;;;4.67;100.00;101643.03;5122870;28;20106;-92
2023/05/04 01:36:53;;;;;;;4.13;1.33;;;;;;;4.60;100.00;101648.19;5141338;28;20042;-92
2023/05/04 01:39:28;;;;;;;3.75;1.48;;;;;;;4.75;100.00;101643.94;5122857;28;20023;-91
2023/05/04 01:42:01;;;;;;;2.80;1.40;;;;;;;4.88;100.00;101650.91;5139980;28;20038;-91
2023/05/04 01:45:02;;;;;;;;;;;;;;;;;;;;;
2023/05/04 01:47:45;;;;;;;;;;;;;;;;;;;;;
2023/05/04 01:50:27;;;;;;;4.55;1.73;;;;;;;5.06;99.93;101645.81;5129333;28;20043;-92
2023/05/04 01:53:03;;;;;;;5.28;1.55;;;;;;;5.02;100.00;101653.56;5116396;28;20500;-92
2023/05/04 01:55:38;;;;;;;4.75;1.73;;;;;;;5.07;100.00;101654.44;5125665;28;20110;-92
2023/05/04 01:58:22;;;;;;;4.63;1.50;;;;;;;5.21;100.00;101648.47;5123484;28;20026;-91
2023/05/04 02:00:52;;;;;;;5.30;1.73;;;;;;;5.36;100.00;101640.69;5139103;28;20031;-92
2023/05/04 02:03:43;;;;;;;;;;;;;;;;;;;;;
2023/05/04 02:06:24;;;;;;;;;;;;;;;;;;;;;
2023/05/04 02:09:07;;;;;;;;;;;;;;;;;;;;;
2023/05/04 02:11:40;;;;;;;4.43;1.50;;;;;;;5.23;99.76;101633.78;5128233;28;20019;-92
2023/05/04 02:14:13;;;;;;;5.57;1.75;;;;;;;5.27;99.73;101630.34;5128956;28;20502;-92
2023/05/04 02:16:43;;;;;;;7.47;1.83;;;;;;;5.30;99.61;101632.06;5123270;28;20089;-92
2023/05/04 02:19:14;;;;;;;3.80;1.45;;;;;;;5.21;98.60;101632.91;5122915;28;20130;-92
2023/05/04 02:21:47;;;;;;;3.42;1.60;;;;;;;5.15;99.48;101630.28;5139528;28;20058;-92
2023/05/04 02:24:17;;;;;;;4.28;1.52;;;;;;;4.96;99.92;101618.13;5123067;28;20027;-92
2023/05/04 02:26:53;;;;;;;5.20;1.70;;;;;;;4.85;100.00;101622.44;5138485;28;20058;-93
2023/05/04 02:29:29;;;;;;;4.13;1.58;;;;;;;4.97;100.00;101617.28;5123833;28;20398;-93
2023/05/04 02:32:07;;;;;;;3.78;1.60;;;;;;;5.10;100.00;101623.34;5141821;28;20027;-93
2023/05/04 02:34:40;;;;;;;4.50;1.50;;;;;;;5.09;99.58;101622.50;5121532;28;20027;-92
2023/05/04 02:37:10;;;;;;;4.18;1.70;;;;;;;5.06;99.85;101625.09;5153612;23;20038;-69
2023/05/04 02:39:41;;;;;;;5.75;1.95;;;;;;;5.19;100.00;101621.66;5148429;28;20073;-71
2023/05/04 02:42:11;;;;;;;4.47;1.73;;;;;;;5.14;99.66;101622.53;5145141;28;20030;-72
2023/05/04 02:44:41;;;;;;;3.75;1.42;;;;;;;5.23;99.84;101625.13;5146289;28;20030;-72
2023/05/04 02:47:12;;;;;;;2.85;1.48;;;;;;;5.34;100.00;101626.88;5145007;28;20023;-69
2023/05/04 02:49:42;;;;;;;6.20;2.22;;;;;;;5.22;98.91;101621.69;5141036;28;20068;-72
2023/05/04 02:52:12;;;;;;;7.45;1.77;;;;;;;5.25;99.16;101620.81;5145062;28;20492;-71
2023/05/04 02:54:43;;;;;;;3.35;1.58;;;;;;;5.22;98.21;101626.00;5146138;28;20031;-71
2023/05/04 02:57:13;;;;;;;6.80;2.00;;;;;;;5.10;100.00;101626.81;5145285;28;20114;-68
2023/05/04 02:59:43;;;;;;;3.88;1.73;;;;;;;5.16;100.00;101634.59;5146497;28;20396;-70
2023/05/04 03:02:13;;;;;;;5.45;1.40;;;;;;;5.15;97.72;101632.03;5145284;28;20070;-72
2023/05/04 03:04:44;;;;;;;4.43;1.20;;;;;;;5.04;94.53;101642.34;5146919;28;20033;-71
2023/05/04 03:07:14;;;;;;;2.53;1.17;;;;;;;4.73;94.22;101637.91;5145410;28;20031;-70
2023/05/04 03:09:44;;;;;;;2.42;1.00;;;;;;;4.80;94.00;101637.06;5144873;28;20128;-70
2023/05/04 03:12:15;;;;;;;3.28;1.42;;;;;;;4.70;95.06;101635.31;5145260;28;20443;-70
2023/05/04 03:14:45;;;;;;;3.05;1.23;;;;;;;4.51;95.93;101638.66;5143803;28;21427;-70
2023/05/04 03:17:15;;;;;;;3.22;1.45;;;;;;;4.44;98.61;101623.94;5141447;28;20429;-72
2023/05/04 03:19:46;;;;;;;2.53;1.08;;;;;;;4.49;99.16;101632.56;5144818;28;20050;-71
2023/05/04 03:22:16;;;;;;;3.67;1.58;;;;;;;4.37;98.93;101629.94;5144420;28;20072;-72
2023/05/04 03:24:46;;;;;;;3.45;1.45;;;;;;;4.53;99.53;101631.75;5142568;28;20512;-71
2023/05/04 03:27:17;;;;;;;4.53;1.50;;;;;;;4.32;97.83;101623.84;5138708;28;20511;-72
2023/05/04 03:29:47;;;;;;;3.97;1.20;;;;;;;4.12;99.69;101628.03;5139071;28;20202;-71
2023/05/04 03:32:17;;;;;;;5.03;1.27;;;;;;;4.36;99.75;101637.69;5141954;28;20026;-71
2023/05/04 03:34:48;;;;;;;3.22;1.38;;;;;;;4.34;97.94;101624.75;5142184;28;20022;-68
2023/05/04 03:37:18;;;;;;;3.08;1.33;;;;;;;4.07;99.55;101624.53;5143564;28;20026;-71
2023/05/04 03:39:48;;;;;;;2.97;1.40;;;;;;;4.18;100.00;101627.19;5140479;28;20023;-68
2023/05/04 03:42:19;;;;;;;3.60;1.40;;;;;;;4.15;100.00;101622.00;5145606;28;20561;-72
2023/05/04 03:44:49;;;;;;;5.72;1.30;;;;;;;4.38;99.04;101616.13;5143210;28;20110;-71
2023/05/04 03:47:19;;;;;;;4.63;1.35;;;;;;;4.19;99.19;101616.88;5142819;28;20333;-70
2023/05/04 03:49:50;;;;;;;4.10;1.33;;;;;;;4.11;100.00;101613.34;5143911;28;20061;-68
2023/05/04 03:52:20;;;;;;;3.20;1.27;;;;;;;3.99;100.00;101604.66;5145881;28;20061;-67
2023/05/04 03:54:50;;;;;;;3.95;1.30;;;;;;;4.01;100.00;101608.13;5142805;28;20039;-68
2023/05/04 03:57:23;;;;;;;4.20;1.33;;;;;;;4.11;100.00;101610.78;5139434;28;20050;-70
2023/05/04 03:59:53;;;;;;;4.03;1.48;;;;;;;4.20;100.00;101603.09;5142346;28;20026;-71
2023/05/04 04:02:23;;;;;;;5.65;1.38;;;;;;;4.15;100.00;101607.34;5143251;28;20027;-72
2023/05/04 04:04:53;;;;;;;2.80;1.40;;;;;;;4.30;100.00;101601.44;5142518;28;20078;-73
2023/05/04 04:07:24;;;;;;;5.03;1.42;;;;;;;4.41;100.00;101595.44;5144796;28;20487;-71
2023/05/04 04:09:54;;;;;;;3.83;1.20;;;;;;;4.43;100.00;101603.22;5145314;28;20373;-71
2023/05/04 04:12:24;;;;;;;3.38;1.20;;;;;;;4.41;100.00;101608.38;5144807;28;20018;-71
2023/05/04 04:14:55;;;;;;;3.45;1.75;;;;;;;4.71;100.00;101595.59;5143210;28;20031;-70
2023/05/04 04:17:25;;;;;;;4.63;1.42;;;;;;;4.84;100.00;101587.00;5144247;28;20614;-71
2023/05/04 04:19:55;;;;;;;5.85;1.90;;;;;;;4.88;100.00;101586.19;5143836;28;20039;-72
2023/05/04 04:22:26;;;;;;;3.50;1.50;;;;;;;5.24;100.00;101588.00;5145091;28;20499;-71
2023/05/04 04:24:56;;;;;;;3.83;1.40;;;;;;;5.16;99.46;101580.19;5137086;28;20162;-68
2023/05/04 04:27:26;;;;;;;3.95;1.30;;;;;;;5.30;98.98;101583.69;5141383;28;20069;-70
2023/05/04 04:29:57;;;;;;;5.35;1.60;;;;;;;5.48;98.60;101581.13;5144729;28;20030;-71
2023/05/04 04:32:27;;;;;;;3.25;1.50;;;;;;;5.69;95.83;101583.72;5144608;28;20106;-71
2023/05/04 04:34:58;;;;;;;2.45;1.30;;;;;;;5.97;95.42;101586.38;5143093;28;20719;-70
2023/05/04 04:37:28;;;;;;;5.57;1.60;;;;;;;6.09;95.13;101578.53;5146576;28;20022;-70
2023/05/04 04:40:00;;;;;;;3.42;1.58;;;;;;;6.18;95.09;101575.06;5144294;28;20031;-70
2023/05/04 04:42:31;;;;;;;4.65;1.60;;;;;;;6.24;93.98;101577.66;5143035;28;20022;-72
2023/05/04 04:45:04;;;;;;;4.50;1.63;;;;;;;6.36;93.72;101585.41;5160309;28;20213;-71
2023/05/04 04:47:34;;;;;;;3.83;1.40;;;;;;;6.54;92.95;101577.56;5145897;28;20035;-70
2023/05/04 04:50:05;;;;;;;5.07;1.58;;;;;;;6.77;93.56;101578.34;5147274;28;20083;-71
2023/05/04 04:52:36;;;;;;;6.15;1.80;;;;;;;7.97;91.23;101574.06;5151551;28;20030;-71
2023/05/04 04:55:07;;;;;;;7.28;1.90;;;;;;;8.53;85.21;101571.78;5149907;28;20046;-72
2023/05/04 04:57:38;;;;;;;3.03;1.42;;;;;;;8.19;84.50;101575.63;5148540;28;20027;-71
2023/05/04 05:00:09;;;;;;;5.70;1.38;;;;;;;8.85;81.40;101574.84;5147305;28;20030;-71
2023/05/04 05:02:39;;;;;;;2.95;0.98;;;;;;;9.51;79.74;101573.94;5151638;28;20116;-73
2023/05/04 05:05:10;;;;;;;3.30;1.38;;;;;;;11.34;74.26;101566.03;5145247;28;20497;-71
2023/05/04 05:07:40;;;;;;;3.13;1.33;;;;;;;11.21;71.49;101560.22;5141746;28;20257;-72
2023/05/04 05:10:11;;;;;;;5.28;1.52;;;;;;;11.15;72.56;101560.38;5143106;28;20046;-73
2023/05/04 05:12:41;;;;;;;4.97;1.38;;;;;;;11.59;72.51;101557.59;5143565;28;20497;-71
2023/05/04 05:15:12;;;;;;;3.15;1.20;;;;;;;11.07;72.29;101561.44;5143374;28;20038;-72
2023/05/04 05:17:42;;;;;;;8.35;1.60;;;;;;;11.11;71.80;101548.22;5142194;28;20030;-72
2023/05/04 05:20:14;;;;;;;4.10;1.40;;;;;;;12.15;71.47;101549.16;5141521;28;20497;-73
2023/05/04 05:22:44;;;;;;;3.20;1.30;;;;;;;12.29;69.40;101547.03;5149228;28;20026;-70
2023/05/04 05:25:15;;;;;;;8.18;1.48;;;;;;;12.53;70.78;101542.88;5146659;28;20033;-71
2023/05/04 05:27:45;;;;;;;3.88;1.38;;;;;;;13.37;64.70;101541.25;5149450;28;20052;-72
2023/05/04 05:30:15;;;;;;;6.97;1.40;;;;;;;12.66;68.95;101545.09;5148631;28;20547;-72
2023/05/04 05:32:45;;;;;;;4.13;1.40;;;;;;;12.67;68.95;101546.81;5144669;28;20477;-71
2023/05/04 05:35:16;;;;;;;5.22;1.52;;;;;;;12.38;69.33;101552.03;5147237;28;20022;-72
2023/05/04 05:37:47;;;;;;;3.97;1.55;;;;;;;13.76;63.87;101538.16;5146974;28;20084;-71
2023/05/04 05:40:18;;;;;;;5.95;1.33;;;;;;;13.45;66.71;101547.97;5143533;28;20520;-72
2023/05/04 05:42:48;;;;;;;3.65;1.38;;;;;;;13.39;66.40;101536.81;5145994;28;20362;-71
2023/05/04 05:45:18;;;;;;;3.70;1.20;;;;;;;13.25;67.48;101545.09;5149419;28;20126;-72
2023/05/04 05:47:50;;;;;;;4.57;1.30;;;;;;;13.63;65.53;101536.00;5149499;28;20026;-70
2023/05/04 05:50:22;;;;;;;6.10;1.20;;;;;;;13.56;66.95;101534.50;5146767;28;20393;-69
2023/05/04 05:52:52;;;;;;;2.00;1.10;;;;;;;15.04;64.43;101532.63;5151536;28;20691;-70
2023/05/04 05:55:22;;;;;;;5.37;1.20;;;;;;;14.98;63.80;101538.13;5150557;28;20041;-70
2023/05/04 05:57:53;;;;;;;6.07;1.42;;;;;;;14.63;64.49;101540.34;5149241;28;20282;-70
2023/05/04 06:00:23;;;;;;;3.25;1.20;;;;;;;15.01;62.90;101532.75;5146524;28;20077;-70
2023/05/04 06:02:54;;;;;;;5.50;1.70;;;;;;;14.53;64.87;101533.72;5150620;28;20044;-72
2023/05/04 06:05:25;;;;;;;3.97;1.45;;;;;;;14.66;64.63;101544.66;5151422;28;20050;-71
2023/05/04 06:07:55;;;;;;;4.45;1.23;;;;;;;12.40;71.33;101545.00;5148546;28;20115;-71
2023/05/04 06:10:26;;;;;;;5.40;1.38;;;;;;;13.07;70.25;101539.56;5149598;28;20027;-70
2023/05/04 06:12:56;;;;;;;6.32;1.30;;;;;;;13.36;69.90;101545.63;5147054;28;20030;-71
2023/05/04 06:15:26;;;;;;;2.80;1.48;;;;;;;14.09;66.47;101537.03;5151091;28;20408;-72
2023/05/04 06:17:56;;;;;;;3.58;1.40;;;;;;;14.08;68.11;101534.47;5148060;28;20241;-69
2023/05/04 06:20:27;;;;;;;3.75;1.50;;;;;;;14.22;66.84;101532.25;5150903;28;20023;-73
2023/05/04 06:22:58;;;;;;;3.17;1.45;;;;;;;15.41;64.40;101527.69;5146816;28;20084;-72
2023/05/04 06:25:28;;;;;;;4.07;1.30;;;;;;;14.60;65.19;101534.38;5149249;28;20034;-72
2023/05/04 06:27:58;;;;;;;3.67;1.43;;;;;;;15.28;64.71;101534.31;5148690;28;20030;-71
2023/05/04 06:30:28;;;;;;;3.00;1.23;;;;;;;14.90;64.24;101534.94;5141465;28;20673;-72
2023/05/04 06:32:59;;;;;;;7.47;1.40;;;;;;;15.53;63.83;101521.88;5146665;28;20333;-72
2023/05/04 06:35:30;;;;;;;8.10;1.20;;;;;;;15.58;63.15;101535.75;5145486;28;20597;-72
2023/05/04 06:38:00;;;;;;;3.75;1.25;;;;;;;17.20;59.52;101523.22;5146942;28;20041;-72
2023/05/04 06:40:30;;;;;;;3.45;1.10;;;;;;;17.04;57.59;101528.38;5161476;28;20529;-72
2023/05/04 06:43:01;;;;;;;2.80;1.00;;;;;;;17.98;57.42;101528.13;5145916;28;20395;-72
2023/05/04 06:45:34;;;;;;;2.58;1.00;;;;;;;18.14;56.32;101525.56;5148909;28;20705;-72
2023/05/04 06:48:05;;;;;;;4.32;1.08;;;;;;;18.92;55.06;101519.56;5143694;28;20027;-74
2023/05/04 06:50:36;;;;;;;2.92;0.90;;;;;;;20.24;53.12;101520.69;5146496;28;20034;-72
2023/05/04 06:53:07;;;;;;;2.50;0.90;;;;;;;20.24;53.58;101520.69;5145424;28;20027;-73
2023/05/04 06:55:38;;;;;;;4.22;1.30;;;;;;;19.91;54.22;101524.44;5140173;28;20030;-73
2023/05/04 06:58:08;;;;;;;3.03;1.17;;;;;;;21.68;51.85;101512.31;5141335;28;20030;-72
2023/05/04 07:00:42;;;;;;;5.50;1.20;;;;;;;18.97;55.45;101523.66;5143395;28;20277;-73
2023/05/04 07:03:12;;;;;;;5.10;1.45;;;;;;;20.08;54.22;101519.91;5145324;28;20085;-72
2023/05/04 07:05:44;;;;;;;4.05;1.15;;;;;;;20.67;52.64;101518.91;5148314;28;20042;-72
2023/05/04 07:08:14;;;;;;;4.28;1.27;;;;;;;19.46;53.29;101524.47;5146168;28;20774;-73
2023/05/04 07:10:45;;;;;;;2.63;0.90;;;;;;;20.72;52.73;101520.34;5144655;28;20034;-72
2023/05/04 07:13:15;;;;;;;4.82;1.13;;;;;;;21.91;50.15;101513.44;5158980;28;20134;-73
2023/05/04 07:15:45;;;;;;;4.73;1.20;;;;;;;20.53;51.25;101522.44;5146006;28;20519;-71
2023/05/04 07:18:16;;;;;;;2.53;0.98;;;;;;;19.52;52.43;101530.28;5143288;28;20273;-72
2023/05/04 07:20:46;;;;;;;2.92;1.00;;;;;;;20.72;51.14;101515.03;5144237;28;20214;-72
2023/05/04 07:23:16;;;;;;;3.17;0.93;;;;;;;19.56;51.69;101526.50;5146688;28;20034;-71
2023/05/04 07:25:46;;;;;;;3.97;1.23;;;;;;;19.40;52.76;101524.81;5144003;28;20520;-72
2023/05/04 07:28:17;;;;;;;4.13;0.93;;;;;;;20.45;51.28;101515.88;5145092;28;20295;-72
2023/05/04 07:30:47;;;;;;;2.88;0.75;;;;;;;19.70;51.04;101517.75;5147597;28;20277;-72
2023/05/04 07:33:17;;;;;;;3.55;1.10;;;;;;;19.70;51.68;101518.63;5147452;28;20049;-72
2023/05/04 07:35:48;;;;;;;2.83;0.98;;;;;;;19.76;51.01;101506.81;5145816;28;20019;-70
2023/05/04 07:38:18;;;;;;;3.42;0.80;;;;;;;19.55;51.35;101506.22;5142849;28;20027;-72
2023/05/04 07:40:48;;;;;;;5.70;1.13;;;;;;;19.65;52.14;101502.09;5143583;28;20034;-71
2023/05/04 07:43:19;;;;;;;3.67;1.17;;;;;;;19.70;52.74;101502.69;5143406;28;20308;-72
2023/05/04 07:45:52;;;;;;;4.57;1.13;;;;;;;19.55;51.70;101502.72;5146369;28;20289;-71
2023/05/04 07:48:22;;;;;;;3.97;0.90;;;;;;;18.95;53.04;101506.97;5143505;28;20114;-71
2023/05/04 07:50:52;;;;;;;4.33;1.07;;;;;;;19.23;53.07;101496.59;5146540;28;20113;-71
2023/05/04 07:53:25;;;;;;;2.78;1.00;;;;;;;19.92;53.43;101487.22;5147045;28;20280;-72
2023/05/04 07:55:59;;;;;;;4.45;0.90;;;;;;;20.84;52.35;101490.34;5145519;28;20022;-72
2023/05/04 07:58:29;;;;;;;2.50;1.00;;;;;;;19.79;50.79;101485.38;5146038;28;20022;-71
2023/05/04 08:01:00;;;;;;;4.28;1.08;;;;;;;19.22;52.23;101491.38;5144322;28;20026;-71
2023/05/04 08:03:31;;;;;;;4.87;1.10;;;;;;;19.22;51.83;101488.72;5147947;28;20054;-71
2023/05/04 08:06:01;;;;;;;2.50;1.02;;;;;;;19.77;52.57;101482.81;5143835;28;20814;-71
2023/05/04 08:08:31;;;;;;;4.68;1.20;;;;;;;19.27;53.21;101490.19;5144867;28;20049;-72
2023/05/04 08:11:01;;;;;;;5.53;1.10;;;;;;;18.94;53.87;101492.03;5145786;28;20941;-71
2023/05/04 08:13:32;;;;;;;6.75;1.20;;;;;;;19.49;51.89;101493.34;5142775;28;20026;-71
2023/05/04 08:16:02;;;;;;;4.15;1.00;;;;;;;18.88;52.44;101496.81;5144942;28;20077;-72
2023/05/04 08:18:33;;;;;;;4.70;0.82;;;;;;;19.36;52.13;101484.38;5146640;28;20461;-71
2023/05/04 08:21:03;;;;;;;5.22;1.10;;;;;;;20.03;50.54;101483.94;5142653;28;20030;-72
2023/05/04 08:23:33;;;;;;;7.10;1.00;;;;;;;20.05;50.63;101482.94;5145353;28;20058;-72
2023/05/04 08:26:04;;;;;;;4.10;1.10;;;;;;;20.00;51.46;101484.09;5143889;28;20090;-72
2023/05/04 08:28:39;;;;;;;8.63;1.10;;;;;;;20.43;49.56;101465.50;5145889;28;20026;-72
2023/05/04 08:31:10;;;;;;;8.13;1.30;;;;;;;20.10;50.99;101470.22;5144554;28;20070;-71
2023/05/04 08:33:40;;;;;;;4.25;1.40;;;;;;;20.78;50.94;101464.16;5144442;28;20038;-73
2023/05/04 08:36:11;;;;;;;4.60;1.10;;;;;;;21.43;50.94;101466.09;5144348;28;20640;-72
2023/05/04 08:38:41;;;;;;;5.45;1.08;;;;;;;20.94;49.42;101460.47;5146417;28;20373;-72
2023/05/04 08:41:11;;;;;;;5.53;1.20;;;;;;;21.17;50.63;101459.81;5143451;28;20038;-72
2023/05/04 08:43:45;;;;;;;4.03;1.10;;;;;;;20.46;48.80;101456.50;5145163;28;20360;-71
2023/05/04 08:46:16;;;;;;;2.85;1.00;;;;;;;21.54;49.44;101445.78;5146742;28;20030;-72
2023/05/04 08:48:46;;;;;;;1.88;0.88;;;;;;;21.31;48.77;101456.25;5143061;28;20500;-71
2023/05/04 08:51:17;;;;;;;7.50;0.98;;;;;;;19.59;49.26;101460.00;5145131;28;20069;-72
2023/05/04 08:53:50;;;;;;;4.95;1.25;;;;;;;20.53;49.69;101449.84;5146137;28;20027;-71
2023/05/04 08:56:21;;;;;;;5.10;1.00;;;;;;;19.94;49.33;101456.13;5144258;28;20027;-72
2023/05/04 08:58:52;;;;;;;2.53;0.82;;;;;;;21.01;48.25;101451.13;5144371;28;20032;-71
2023/05/04 09:01:22;;;;;;;3.88;1.20;;;;;;;20.38;48.76;101449.00;5146088;28;20034;-72
2023/05/04 09:03:53;;;;;;;3.75;0.85;;;;;;;18.75;52.40;101466.66;5142001;28;20034;-72
2023/05/04 09:06:24;;;;;;;5.43;1.02;;;;;;;19.61;53.51;101451.97;5146335;28;20023;-71
2023/05/04 09:08:54;;;;;;;4.60;1.33;;;;;;;19.09;52.71;101454.06;5142175;28;20400;-71
2023/05/04 09:11:25;;;;;;;3.25;1.13;;;;;;;18.44;53.39;101461.31;5146442;28;20392;-71
2023/05/04 09:13:55;;;;;;;4.80;1.20;;;;;;;18.87;52.84;101458.00;5140175;28;20045;-71
2023/05/04 09:16:36;;;;;;;3.40;1.20;;;;;;;18.34;54.47;101448.66;5140426;28;20165;-72
2023/05/04 09:19:19;;;;;;;5.82;1.13;;;;;;;18.85;52.84;101436.91;5142784;28;20057;-71
2023/05/04 09:21:53;;;;;;;2.42;1.20;;;;;;;18.44;53.65;101449.84;5141648;28;20034;-72
2023/05/04 09:24:29;;;;;;;7.47;1.40;;;;;;;18.59;55.52;101446.38;5144526;28;20323;-71
2023/05/04 09:27:09;;;;;;;3.00;1.25;;;;;;;18.76;53.50;101437.41;5143765;28;20291;-71
2023/05/04 09:29:41;;;;;;;3.78;1.20;;;;;;;18.65;53.50;101433.66;5140826;28;20849;-73
2023/05/04 09:32:13;;;;;;;6.18;1.30;;;;;;;18.60;52.93;101434.84;5143928;28;20117;-72
2023/05/04 09:34:51;;;;;;;3.47;1.27;;;;;;;18.63;53.90;101435.53;5140917;28;20031;-71
2023/05/04 09:37:21;;;;;;;5.30;1.27;;;;;;;18.77;53.40;101432.97;5146452;28;20027;-69
2023/05/04 09:39:54;;;;;;;3.85;1.30;;;;;;;18.63;53.32;101430.22;5148038;28;20511;-71
2023/05/04 09:42:25;;;;;;;4.18;1.17;;;;;;;19.00;53.75;101424.59;5148980;28;20344;-73
2023/05/04 09:45:00;;;;;;;3.22;1.13;;;;;;;18.79;54.47;101431.09;5148717;28;20066;-71
2023/05/04 09:47:40;;;;;;;4.97;1.50;;;;;;;18.88;53.56;101425.28;5145103;28;20031;-70
2023/05/04 09:50:18;;;;;;;4.22;1.58;;;;;;;18.62;55.21;101423.22;5145092;28;20042;-71
2023/05/04 09:52:49;;;;;;;3.33;1.40;;;;;;;18.01;54.94;101426.56;5147953;28;20025;-70
2023/05/04 09:55:19;;;;;;;6.35;1.50;;;;;;;17.48;55.87;101420.53;5148330;28;20046;-72
2023/05/04 09:57:50;;;;;;;4.40;1.70;;;;;;;17.87;55.23;101408.78;5145450;28;20093;-70
2023/05/04 10:00:20;;;;;;;4.88;1.58;;;;;;;18.36;56.35;101407.06;5144498;28;20027;-71
2023/05/04 10:02:52;;;;;;;6.00;1.67;;;;;;;18.56;54.80;101396.22;5146232;28;20031;-70
2023/05/04 10:05:25;;;;;;;7.13;1.88;;;;;;;18.73;56.20;101389.91;5148237;28;20023;-72
2023/05/04 10:07:58;;;;;;;6.00;2.03;;;;;;;18.98;55.08;101390.25;5146098;28;20488;-73
2023/05/04 10:10:29;;;;;;;4.72;1.77;;;;;;;18.56;56.14;101390.94;5147351;28;20031;-72
2023/05/04 10:12:59;;;;;;;2.95;1.48;;;;;;;18.75;56.92;101387.19;5145571;28;20022;-71
2023/05/04 10:15:30;;;;;;;8.65;1.73;;;;;;;18.44;54.72;101381.88;5142125;28;20022;-71
2023/05/04 10:18:20;;;;;;;3.58;1.70;;;;;;;18.21;54.30;101386.69;5142770;28;20431;-70
2023/05/04 10:21:15;;;;;;;5.07;1.60;;;;;;;18.51;55.80;101383.25;5139623;28;20041;-70
2023/05/04 10:24:04;;;;;;;5.95;1.83;;;;;;;18.10;56.00;101381.09;5141265;28;20023;-71
2023/05/04 10:26:44;;;;;;;7.25;1.80;;;;;;;18.45;58.27;101375.63;5143724;28;20034;-71
2023/05/04 10:29:20;;;;;;;6.00;1.75;;;;;;;18.56;57.22;101370.63;5143672;28;20037;-71
2023/05/04 10:31:52;;;;;;;3.60;1.70;;;;;;;18.98;57.04;101360.22;5146444;28;20496;-71
2023/05/04 10:34:27;;;;;;;3.63;1.83;;;;;;;18.92;58.30;101369.38;5140999;28;20031;-73
2023/05/04 10:36:59;;;;;;;5.00;1.80;;;;;;;18.30;57.57;101362.38;5163564;28;20822;-71
2023/05/04 10:39:32;;;;;;;4.63;1.83;;;;;;;18.48;56.12;101350.81;5147174;28;20030;-70
2023/05/04 10:42:04;;;;;;;4.88;1.77;;;;;;;18.39;57.51;101353.94;5129029;28;20038;-71
2023/05/04 10:44:51;;;;;;;3.33;1.55;;;;;;;18.21;57.88;101349.63;5148594;28;20022;-72
2023/05/04 10:47:31;;;;;;;5.72;2.38;;;;;;;18.42;57.07;101340.53;5145742;28;20396;-71
2023/05/04 10:50:14;;;;;;;6.80;2.10;;;;;;;18.15;56.25;101342.88;5139805;28;20587;-69
2023/05/04 10:52:46;;;;;;;5.47;1.70;;;;;;;18.50;55.60;101335.69;5143671;28;20450;-71
2023/05/04 10:55:17;;;;;;;8.48;2.05;;;;;;;18.57;55.16;101334.38;5146204;28;20026;-72
2023/05/04 10:57:54;;;;;;;4.30;1.88;;;;;;;18.40;55.65;101331.81;5147341;28;20030;-72
2023/05/04 11:00:39;;;;;;;2.95;1.60;;;;;;;18.94;56.28;101327.75;5147010;28;20034;-72
2023/05/04 11:03:11;;;;;;;4.35;1.90;;;;;;;19.00;57.90;101323.91;5144319;28;20109;-71
2023/05/04 11:05:49;;;;;;;4.78;1.60;;;;;;;18.91;55.95;101314.69;5149223;28;20037;-73
2023/05/04 11:08:23;;;;;;;6.28;1.85;;;;;;;18.99;55.22;101317.75;5160246;28;20030;-72
2023/05/04 11:11:05;;;;;;;4.15;1.90;;;;;;;18.78;55.72;101311.03;5145255;28;20034;-70
2023/05/04 11:13:46;;;;;;;2.65;1.73;;;;;;;18.47;56.20;101317.28;5148206;28;20084;-73
2023/05/04 11:16:23;;;;;;;6.07;1.92;;;;;;;18.48;56.39;101316.38;5144995;28;20019;-72
2023/05/04 11:19:05;;;;;;;3.65;2.08;;;;;;;18.50;56.14;101302.09;5145033;28;20125;-71
2023/05/04 11:21:36;;;;;;;6.65;1.98;;;;;;;18.06;55.60;101308.13;5148308;28;20105;-72
2023/05/04 11:24:06;;;;;;;4.45;1.88;;;;;;;18.14;55.89;101303.28;5140979;28;20105;-73
2023/05/04 11:26:48;;;;;;;5.18;2.10;;;;;;;18.05;56.75;101293.19;5147384;28;20505;-72
2023/05/04 11:29:19;;;;;;;3.92;1.70;;;;;;;18.58;59.12;101294.59;5146275;28;20112;-70
2023/05/04 11:31:54;;;;;;;6.32;1.80;;;;;;;18.83;56.26;101290.44;5146081;28;20496;-69
2023/05/04 11:34:24;;;;;;;4.93;2.00;;;;;;;18.82;55.03;101294.03;5142277;28;20029;-71
2023/05/04 11:36:55;;;;;;;4.57;1.90;;;;;;;18.85;54.36;101285.03;5145256;28;20038;-70
2023/05/04 11:39:25;;;;;;;5.80;1.70;;;;;;;19.46;56.16;101276.03;5149204;28;20182;-72
2023/05/04 11:41:56;;;;;;;3.42;1.67;;;;;;;19.61;55.31;101267.16;5145591;28;20389;-71
2023/05/04 11:44:27;;;;;;;3.63;1.55;;;;;;;19.66;55.38;101278.34;5145027;28;20322;-72
2023/05/04 11:46:58;;;;;;;4.93;1.85;;;;;;;19.31;52.55;101276.97;5144529;28;20129;-70
2023/05/04 11:49:30;;;;;;;2.85;1.70;;;;;;;19.46;55.05;101268.06;5150488;28;20057;-72
2023/05/04 11:52:07;;;;;;;3.40;1.70;;;;;;;19.72;50.89;101267.34;5143128;28;20045;-71
2023/05/04 11:54:37;;;;;;;3.72;1.52;;;;;;;19.28;52.69;101271.84;5147829;28;20026;-73
2023/05/04 11:57:07;;;;;;;5.10;1.60;;;;;;;18.84;53.41;101270.09;5143310;28;20037;-72
2023/05/04 11:59:47;;;;;;;5.15;1.80;;;;;;;19.25;55.24;101261.44;5138800;28;20124;-72
2023/05/04 12:02:19;;;;;;;5.38;1.80;;;;;;;19.28;55.69;101255.94;5145509;28;20030;-73
2023/05/04 12:04:49;;;;;;;3.17;1.42;;;;;;;19.07;51.56;101262.50;5144561;28;20492;-72
2023/05/04 12:07:19;;;;;;;10.85;1.95;;;;;;;19.08;53.52;101252.78;5142530;28;20034;-71
2023/05/04 12:09:50;;;;;;;4.97;2.33;;;;;;;19.04;54.35;101254.72;5143341;28;20062;-72
2023/05/04 12:12:20;;;;;;;4.55;1.80;;;;;;;18.85;53.05;101256.75;5145046;28;20118;-71